createdAt,value
2022-09-07T00:00:22.609Z,55.02
2022-09-07T00:02:54.514Z,54.81
2022-09-07T00:05:26.140Z,54.87
2022-09-07T00:07:58.022Z,54.72
2022-09-07T00:10:29.514Z,55.44
2022-09-07T00:13:01.482Z,55.48
2022-09-07T00:15:33.001Z,55.63
2022-09-07T00:18:04.521Z,55.51
2022-09-07T00:20:36.079Z,55.48
2022-09-07T00:23:07.864Z,55.78
2022-09-07T00:25:39.596Z,56.03
2022-09-07T00:28:11.515Z,56.10
2022-09-07T00:30:43.484Z,56.60
2022-09-07T00:33:14.980Z,56.97
2022-09-07T00:35:46.984Z,56.75
2022-09-07T00:38:18.504Z,56.77
2022-09-07T00:40:50.390Z,57.01
2022-09-07T00:43:21.968Z,56.90
2022-09-07T00:45:53.972Z,57.36
2022-09-07T00:48:25.475Z,57.43
2022-09-07T00:50:57.416Z,57.46
2022-09-07T00:53:28.922Z,57.51
2022-09-07T00:56:00.803Z,57.31
2022-09-07T00:58:32.415Z,57.59
2022-09-07T01:01:03.932Z,58.51
2022-09-07T01:03:35.444Z,57.99
2022-09-07T01:06:07.371Z,57.60
2022-09-07T01:08:38.868Z,58.05
2022-09-07T01:11:10.762Z,57.82
2022-09-07T01:13:42.250Z,57.86
2022-09-07T01:16:14.260Z,58.32
2022-09-07T01:18:45.805Z,58.20
2022-09-07T01:21:17.630Z,58.60
2022-09-07T01:23:49.127Z,58.85
2022-09-07T01:26:21.201Z,58.88
2022-09-07T01:28:52.714Z,58.84
2022-09-07T01:31:24.596Z,59.26
2022-09-07T01:33:56.271Z,59.36
2022-09-07T01:36:28.199Z,59.34
2022-09-07T01:38:59.710Z,59.33
2022-09-07T01:41:31.564Z,59.97
2022-09-07T01:44:03.128Z,59.56
2022-09-07T01:46:34.994Z,59.92
2022-09-07T01:49:06.559Z,60.04
2022-09-07T01:51:38.460Z,59.74
2022-09-07T01:54:09.965Z,60.04
2022-09-07T01:56:41.845Z,60.67
2022-09-07T01:59:13.346Z,60.14
2022-09-07T02:01:45.315Z,60.42
2022-09-07T02:04:16.916Z,60.88
2022-09-07T02:06:48.605Z,61.01
2022-09-07T02:09:20.195Z,60.90
2022-09-07T02:11:51.984Z,61.32
2022-09-07T02:14:23.491Z,61.04
2022-09-07T02:16:55.459Z,61.03
2022-09-07T02:19:26.960Z,61.28
2022-09-07T02:21:58.794Z,61.20
2022-09-07T02:24:31.112Z,61.50
2022-09-07T02:27:02.922Z,61.58
2022-09-07T02:29:34.472Z,61.45
2022-09-07T02:32:06.308Z,62.13
2022-09-07T02:34:37.814Z,62.18
2022-09-07T02:37:09.627Z,62.37
2022-09-07T02:39:41.229Z,62.34
2022-09-07T02:42:13.140Z,62.87
2022-09-07T02:44:46.479Z,62.70
2022-09-07T02:47:18.340Z,62.90
2022-09-07T02:49:50.246Z,62.92
2022-09-07T02:52:21.741Z,63.30
2022-09-07T02:54:53.663Z,63.44
2022-09-07T02:57:25.156Z,63.11
2022-09-07T02:59:57.032Z,63.81
2022-09-07T03:02:28.641Z,63.46
2022-09-07T03:05:00.483Z,63.95
2022-09-07T03:07:34.613Z,63.90
2022-09-07T03:10:07.858Z,64.28
2022-09-07T03:12:39.752Z,64.45
2022-09-07T03:15:11.869Z,64.18
2022-09-07T03:17:43.412Z,64.59
2022-09-07T03:20:16.803Z,64.86
2022-09-07T03:22:48.290Z,65.28
2022-09-07T03:25:19.831Z,65.14
2022-09-07T03:27:51.364Z,65.62
2022-09-07T03:30:24.168Z,65.45
2022-09-07T03:32:55.665Z,65.95
2022-09-07T03:35:27.498Z,65.29
2022-09-07T03:37:59.016Z,65.54
2022-09-07T03:40:30.885Z,65.68
2022-09-07T03:43:02.482Z,66.45
2022-09-07T03:45:34.424Z,66.02
2022-09-07T03:48:05.945Z,66.39
2022-09-07T03:50:37.891Z,66.14
2022-09-07T03:53:09.390Z,66.39
2022-09-07T03:55:41.270Z,66.78
2022-09-07T03:58:12.853Z,67.12
2022-09-07T04:00:44.757Z,67.58
2022-09-07T04:03:16.243Z,67.57
2022-09-07T04:05:48.055Z,67.50
2022-09-07T04:08:19.546Z,67.73
2022-09-07T04:10:51.336Z,68.16
2022-09-07T04:13:22.854Z,67.39
2022-09-07T04:15:54.665Z,68.19
2022-09-07T04:18:26.179Z,67.47
2022-09-07T04:20:58.025Z,67.78
2022-09-07T04:23:30.010Z,68.07
2022-09-07T04:26:01.556Z,68.41
2022-09-07T04:28:33.053Z,68.18
2022-09-07T04:31:05.116Z,68.14
2022-09-07T04:33:36.815Z,68.24
2022-09-07T04:36:08.652Z,67.73
2022-09-07T04:38:40.212Z,68.14
2022-09-07T04:41:12.115Z,68.73
2022-09-07T04:43:43.614Z,68.32
2022-09-07T04:46:15.474Z,68.47
2022-09-07T04:48:47.353Z,69.38
2022-09-07T04:51:18.877Z,68.52
2022-09-07T04:53:50.902Z,68.60
2022-09-07T04:56:22.481Z,69.01
2022-09-07T04:58:54.606Z,68.51
2022-09-07T05:01:26.335Z,68.31
2022-09-07T05:03:58.299Z,68.44
2022-09-07T05:06:30.055Z,68.12
2022-09-07T05:09:02.152Z,68.02
2022-09-07T05:11:33.697Z,68.28
2022-09-07T05:14:05.636Z,68.00
2022-09-07T05:16:37.230Z,68.11
2022-09-07T05:19:09.438Z,67.62
2022-09-07T05:21:40.982Z,67.38
2022-09-07T05:24:12.878Z,67.64
2022-09-07T05:26:44.432Z,67.15
2022-09-07T05:32:08.245Z,66.94
2022-09-07T05:34:40.116Z,66.82
2022-09-07T05:37:11.712Z,66.59
2022-09-07T05:39:44.397Z,65.71
2022-09-07T05:42:16.059Z,65.59
2022-09-07T05:44:48.149Z,65.38
2022-09-07T05:47:19.726Z,65.83
2022-09-07T05:49:53.000Z,65.37
2022-09-07T05:52:28.774Z,65.19
2022-09-07T05:55:19.280Z,64.63
2022-09-07T05:57:52.538Z,64.24
2022-09-07T06:00:24.251Z,64.03
2022-09-07T06:02:56.389Z,63.63
2022-09-07T06:05:27.931Z,63.29
2022-09-07T06:07:59.755Z,62.90
2022-09-07T06:10:47.375Z,62.99
2022-09-07T06:13:19.425Z,62.44
2022-09-07T06:15:50.996Z,62.36
2022-09-07T06:18:22.836Z,61.64
2022-09-07T06:20:54.409Z,61.60
2022-09-07T06:23:25.953Z,60.71
2022-09-07T06:25:57.460Z,60.72
2022-09-07T06:28:29.459Z,60.45
2022-09-07T06:31:01.065Z,60.53
2022-09-07T06:33:32.790Z,60.07
2022-09-07T06:36:04.575Z,60.70
2022-09-07T06:38:37.299Z,60.45
2022-09-07T06:44:00.639Z,60.45
2022-09-07T06:49:24.031Z,60.79
2022-09-07T06:51:55.658Z,61.52
2022-09-07T06:57:19.450Z,61.44
2022-09-07T06:59:50.991Z,60.10
2022-09-07T07:02:22.892Z,59.61
2022-09-07T07:04:54.437Z,58.81
2022-09-07T07:07:26.319Z,59.44
2022-09-07T07:09:57.842Z,58.03
2022-09-07T07:15:15.044Z,57.41
2022-09-07T07:17:51.952Z,57.36
2022-09-07T07:20:27.573Z,55.84
2022-09-07T07:22:59.434Z,56.20
2022-09-07T07:25:30.985Z,56.13
2022-09-07T07:30:54.627Z,54.99
2022-09-07T07:33:26.184Z,54.37
2022-09-07T07:35:57.725Z,53.89
2022-09-07T07:44:13.293Z,54.68
2022-09-07T07:46:45.111Z,53.76
2022-09-07T07:49:16.701Z,54.25
2022-09-07T07:54:39.729Z,53.70
2022-09-07T07:57:12.162Z,53.20
2022-09-07T07:59:43.659Z,53.67
2022-09-07T08:02:15.231Z,53.52
2022-09-07T08:04:46.848Z,52.77
2022-09-07T08:07:19.531Z,52.99
2022-09-07T08:09:51.084Z,53.03
2022-09-07T08:12:26.601Z,52.95
2022-09-07T08:15:00.726Z,52.47
2022-09-07T08:17:32.718Z,51.94
2022-09-07T08:20:04.248Z,52.09
2022-09-07T08:22:36.335Z,51.62
2022-09-07T08:25:07.838Z,51.79
2022-09-07T08:27:39.539Z,51.74
2022-09-07T08:30:11.166Z,50.77
2022-09-07T08:32:42.999Z,50.39
2022-09-07T08:35:14.494Z,49.60
2022-09-07T08:37:46.319Z,49.59
2022-09-07T08:40:17.979Z,50.06
2022-09-07T08:42:52.170Z,49.20
2022-09-07T08:45:23.682Z,48.58
2022-09-07T08:47:55.548Z,48.73
2022-09-07T08:50:28.858Z,48.82
2022-09-07T08:53:00.683Z,49.24
2022-09-07T08:55:36.064Z,48.26
2022-09-07T08:58:18.095Z,47.70
2022-09-07T09:06:43.853Z,46.21
2022-09-07T09:09:15.835Z,46.88
2022-09-07T09:11:48.510Z,47.13
2022-09-07T09:14:20.145Z,46.88
2022-09-07T09:16:52.123Z,47.04
2022-09-07T09:19:23.607Z,46.24
2022-09-07T09:21:55.470Z,45.44
2022-09-07T09:24:26.965Z,45.55
2022-09-07T09:26:58.840Z,46.90
2022-09-07T09:29:30.351Z,45.71
2022-09-07T09:32:02.255Z,46.48
2022-09-07T09:34:35.186Z,47.39
2022-09-07T09:37:07.274Z,46.94
2022-09-07T09:39:39.940Z,47.03
2022-09-07T09:42:11.825Z,46.75
2022-09-07T09:44:43.488Z,46.40
2022-09-07T09:47:31.182Z,46.06
2022-09-07T09:50:03.144Z,45.87
2022-09-07T09:52:45.081Z,45.17
2022-09-07T09:55:35.939Z,45.22
2022-09-07T10:06:26.343Z,48.12
2022-09-07T10:08:57.942Z,48.43
2022-09-07T10:12:05.083Z,49.54
2022-09-07T10:14:21.267Z,48.43
2022-09-07T10:16:53.106Z,47.81
2022-09-07T10:19:24.652Z,48.20
2022-09-07T10:21:56.477Z,48.57
2022-09-07T10:24:28.179Z,49.21
2022-09-07T10:27:00.028Z,48.96
2022-09-07T10:29:31.576Z,49.74
2022-09-07T10:32:03.419Z,50.79
2022-09-07T10:34:34.906Z,50.54
2022-09-07T10:37:07.180Z,50.90
2022-09-07T10:39:38.711Z,50.24
2022-09-07T10:42:10.696Z,50.20
2022-09-07T10:44:42.284Z,50.32
2022-09-07T10:47:16.842Z,50.74
2022-09-07T10:52:40.328Z,49.74
2022-09-07T10:55:11.850Z,50.47
2022-09-07T10:57:48.273Z,50.98
2022-09-07T11:00:20.564Z,51.76
2022-09-07T11:05:43.981Z,50.49
2022-09-07T11:08:15.960Z,50.02
2022-09-07T11:10:47.511Z,49.90
2022-09-07T11:13:19.543Z,50.37
2022-09-07T11:15:51.094Z,50.01
2022-09-07T11:18:23.090Z,48.96
2022-09-07T11:20:58.768Z,48.84
2022-09-07T11:23:30.717Z,48.47
2022-09-07T11:26:02.442Z,48.48
2022-09-07T11:28:34.295Z,47.37
2022-09-07T11:31:05.809Z,47.06
2022-09-07T11:33:39.298Z,46.89
2022-09-07T11:36:12.365Z,47.79
2022-09-07T11:38:44.635Z,48.36
2022-09-07T11:41:16.131Z,49.65
2022-09-07T11:43:47.998Z,50.44
2022-09-07T11:46:19.587Z,50.80
2022-09-07T11:48:51.486Z,50.30
2022-09-07T11:51:23.457Z,50.92
2022-09-07T11:53:54.986Z,50.53
2022-09-07T11:56:26.762Z,49.73
2022-09-07T11:58:58.260Z,49.61
2022-09-07T12:01:30.240Z,48.37
2022-09-07T12:04:02.148Z,48.09
2022-09-07T12:06:34.164Z,47.66
2022-09-07T12:09:05.661Z,46.78
2022-09-07T12:11:37.622Z,46.41
2022-09-07T12:14:09.177Z,45.36
2022-09-07T12:16:41.086Z,45.40
2022-09-07T12:19:12.846Z,45.75
2022-09-07T12:21:44.772Z,46.63
2022-09-07T12:24:16.258Z,46.71
2022-09-07T12:26:48.173Z,47.19
2022-09-07T12:29:19.994Z,47.17
2022-09-07T12:32:07.407Z,47.92
2022-09-07T12:34:43.259Z,47.55
2022-09-07T12:37:15.046Z,48.17
2022-09-07T12:39:46.635Z,47.73
2022-09-07T12:42:34.329Z,49.13
2022-09-07T12:45:08.397Z,49.63
2022-09-07T12:47:40.204Z,48.92
2022-09-07T12:50:11.757Z,49.95
2022-09-07T12:52:45.590Z,49.60
2022-09-07T12:55:27.854Z,49.25
2022-09-07T12:58:00.499Z,49.24
2022-09-07T13:00:31.989Z,49.96
2022-09-07T13:03:04.216Z,50.48
2022-09-07T13:05:35.915Z,50.59
2022-09-07T13:08:09.365Z,49.91
2022-09-07T13:10:41.092Z,50.46
2022-09-07T13:13:13.364Z,50.63
2022-09-07T13:15:45.379Z,51.02
2022-09-07T13:18:18.769Z,49.87
2022-09-07T13:20:50.643Z,50.47
2022-09-07T13:23:22.158Z,51.03
2022-09-07T13:25:53.977Z,50.49
2022-09-07T13:28:25.480Z,50.40
2022-09-07T13:30:57.436Z,50.95
2022-09-07T13:33:29.011Z,49.29
2022-09-07T13:36:00.927Z,49.45
2022-09-07T13:38:32.412Z,48.82
2022-09-07T13:41:04.374Z,46.84
2022-09-07T13:43:35.872Z,45.96
2022-09-07T13:46:07.874Z,43.78
2022-09-07T13:48:40.865Z,42.40
2022-09-07T13:51:13.676Z,42.58
2022-09-07T13:53:45.183Z,42.37
2022-09-07T13:56:17.102Z,42.42
2022-09-07T13:58:48.587Z,43.18
2022-09-07T14:01:20.509Z,45.85
2022-09-07T14:03:52.019Z,46.66
2022-09-07T14:06:25.827Z,47.06
2022-09-07T14:08:57.324Z,46.73
2022-09-07T14:11:29.013Z,45.82
2022-09-07T14:14:00.510Z,46.39
2022-09-07T14:16:32.578Z,47.01
2022-09-07T14:19:04.084Z,48.14
2022-09-07T14:21:36.026Z,47.59
2022-09-07T14:24:07.523Z,48.23
2022-09-07T14:26:39.490Z,48.33
2022-09-07T14:29:10.988Z,48.87
2022-09-07T14:31:42.843Z,48.13
2022-09-07T14:34:15.646Z,49.15
2022-09-07T14:36:47.144Z,48.48
2022-09-07T14:39:19.322Z,49.20
2022-09-07T14:41:51.087Z,49.78
2022-09-07T14:44:22.932Z,48.72
2022-09-07T14:46:56.832Z,48.83
2022-09-07T14:49:29.268Z,48.47
2022-09-07T14:52:01.860Z,48.04
2022-09-07T14:54:34.313Z,45.78
2022-09-07T14:57:05.868Z,43.54
2022-09-07T14:59:37.674Z,42.46
2022-09-07T15:02:09.183Z,41.71
2022-09-07T15:04:41.049Z,41.50
2022-09-07T15:07:12.537Z,40.90
2022-09-07T15:09:44.372Z,40.22
2022-09-07T15:12:15.858Z,39.66
2022-09-07T15:14:47.991Z,40.68
2022-09-07T15:20:11.463Z,42.63
2022-09-07T15:22:42.955Z,42.19
2022-09-07T15:25:15.064Z,43.46
2022-09-07T15:27:46.806Z,43.81
2022-09-07T15:30:18.642Z,45.23
2022-09-07T15:32:50.193Z,45.56
2022-09-07T15:35:22.161Z,46.00
2022-09-07T15:38:02.455Z,47.18
2022-09-07T15:40:36.224Z,47.92
2022-09-07T15:43:19.890Z,48.66
2022-09-07T15:45:53.189Z,49.04
2022-09-07T15:48:27.816Z,49.67
2022-09-07T15:50:59.811Z,49.90
2022-09-07T15:56:23.471Z,50.97
2022-09-07T15:58:54.965Z,51.54
2022-09-07T16:04:18.596Z,52.15
2022-09-07T16:06:50.193Z,51.93
2022-09-07T16:09:23.045Z,52.08
2022-09-07T16:11:54.782Z,51.93
2022-09-07T16:14:26.757Z,52.49
2022-09-07T16:19:50.088Z,53.54
2022-09-07T16:25:13.458Z,54.29
2022-09-07T16:27:44.962Z,54.65
2022-09-07T16:30:16.747Z,54.96
2022-09-07T16:32:50.749Z,55.24
2022-09-07T16:35:23.703Z,56.04
2022-09-07T16:40:48.475Z,56.03
2022-09-07T16:43:20.039Z,56.23
2022-09-07T16:46:07.075Z,56.03
2022-09-07T16:48:38.571Z,56.04
2022-09-07T16:51:10.369Z,55.96
2022-09-07T16:53:41.849Z,56.33
2022-09-07T16:56:13.806Z,56.25
2022-09-07T16:58:45.695Z,55.90
2022-09-07T17:01:17.338Z,56.55
2022-09-07T17:03:49.856Z,56.67
2022-09-07T17:06:21.432Z,56.65
2022-09-07T17:08:52.960Z,56.57
2022-09-07T17:11:24.508Z,57.28
2022-09-07T17:13:56.024Z,58.24
2022-09-07T17:16:27.623Z,58.75
2022-09-07T17:21:55.531Z,63.81
2022-09-07T17:24:31.908Z,61.81
2022-09-07T17:27:03.887Z,63.06
2022-09-07T17:29:38.709Z,63.37
2022-09-07T17:32:25.977Z,63.52
2022-09-07T17:34:58.414Z,65.96
2022-09-07T17:37:29.904Z,65.73
2022-09-07T17:40:05.270Z,65.84
2022-09-07T17:45:29.282Z,64.94
2022-09-07T17:48:00.831Z,65.16
2022-09-07T17:50:32.704Z,66.10
2022-09-07T17:53:04.485Z,67.63
2022-09-07T17:55:36.033Z,68.97
2022-09-07T17:58:08.013Z,70.42
2022-09-07T18:00:40.139Z,71.66
2022-09-07T18:03:13.278Z,73.09
2022-09-07T18:05:44.845Z,74.30
2022-09-07T18:08:16.698Z,75.23
2022-09-07T18:13:40.225Z,77.44
2022-09-07T18:16:11.981Z,78.43
2022-09-07T18:18:43.964Z,78.98
2022-09-07T18:21:15.447Z,79.44
2022-09-07T18:23:48.553Z,80.18
2022-09-07T18:26:20.329Z,80.43
2022-09-07T18:29:18.730Z,80.82
2022-09-07T18:31:43.393Z,80.86
2022-09-07T18:34:15.210Z,80.62
2022-09-07T18:36:46.758Z,80.73
2022-09-07T18:39:18.615Z,80.95
2022-09-07T18:41:50.120Z,80.78
2022-09-07T18:47:21.140Z,80.39
2022-09-07T18:49:55.047Z,80.18
2022-09-07T18:55:18.616Z,79.63
2022-09-07T18:57:50.419Z,79.99
2022-09-07T19:00:21.940Z,80.01
2022-09-07T19:02:53.836Z,79.84
2022-09-07T19:08:17.484Z,80.29
2022-09-07T19:10:48.959Z,80.18
2022-09-07T19:13:20.780Z,79.53
2022-09-07T19:15:52.270Z,79.60
2022-09-07T19:18:24.117Z,79.22
2022-09-07T19:20:55.614Z,79.11
2022-09-07T19:23:27.670Z,78.44
2022-09-07T19:25:59.280Z,78.10
2022-09-07T19:28:31.299Z,77.76
2022-09-07T19:31:03.482Z,76.81
2022-09-07T19:33:38.292Z,75.41
2022-09-07T19:36:09.873Z,74.10
2022-09-07T19:38:41.765Z,73.77
2022-09-07T19:41:15.963Z,74.43
2022-09-07T19:43:47.504Z,74.35
2022-09-07T19:46:24.177Z,74.87
2022-09-07T19:48:56.859Z,75.36
2022-09-07T19:51:28.632Z,75.76
2022-09-07T19:54:00.428Z,75.84
2022-09-07T19:56:31.929Z,76.07
2022-09-07T19:59:03.781Z,75.92
2022-09-07T20:01:35.362Z,73.91
2022-09-07T20:04:06.977Z,72.80
2022-09-07T20:06:38.649Z,72.00
2022-09-07T20:09:10.519Z,71.12
2022-09-07T20:11:46.243Z,70.75
2022-09-07T20:14:19.403Z,70.89
2022-09-07T20:16:51.032Z,71.01
2022-09-07T20:19:22.837Z,71.01
2022-09-07T20:21:55.771Z,71.51
2022-09-07T20:24:27.662Z,71.98
2022-09-07T20:26:59.190Z,72.61
2022-09-07T20:29:31.877Z,73.37
2022-09-07T20:32:03.484Z,73.92
2022-09-07T20:34:35.396Z,74.05
2022-09-07T20:37:06.950Z,74.48
2022-09-07T20:39:39.500Z,75.12
2022-09-07T20:42:11.283Z,75.72
2022-09-07T20:44:42.857Z,76.35
2022-09-07T20:47:14.371Z,76.50
2022-09-07T20:49:46.177Z,76.97
2022-09-07T20:52:17.723Z,76.84
2022-09-07T20:54:49.254Z,76.75
2022-09-07T20:57:20.770Z,76.82
2022-09-07T20:59:52.939Z,76.75
2022-09-07T21:02:24.532Z,77.22
2022-09-07T21:04:56.494Z,77.28
2022-09-07T21:07:27.987Z,77.53
2022-09-07T21:10:02.297Z,77.99
2022-09-07T21:12:37.503Z,78.66
2022-09-07T21:15:09.098Z,79.89
2022-09-07T21:17:40.596Z,80.72
2022-09-07T21:20:12.200Z,80.74
2022-09-07T21:22:43.721Z,81.46
2022-09-07T21:25:15.508Z,82.02
2022-09-07T21:27:47.359Z,82.34
2022-09-07T21:30:18.888Z,83.10
2022-09-07T21:32:51.059Z,83.56
2022-09-07T21:35:22.763Z,83.78
2022-09-07T21:37:54.253Z,83.78
2022-09-07T21:40:26.108Z,83.36
2022-09-07T21:42:57.970Z,83.30
2022-09-07T21:45:29.532Z,83.06
2022-09-07T21:48:01.381Z,82.59
2022-09-07T21:50:32.930Z,82.81
2022-09-07T21:53:04.822Z,82.85
2022-09-07T21:55:36.323Z,82.92
2022-09-07T21:58:08.194Z,82.92
2022-09-07T22:00:39.709Z,82.69
2022-09-07T22:03:11.573Z,83.08
2022-09-07T22:05:43.092Z,82.94
2022-09-07T22:08:14.656Z,81.40
2022-09-07T22:10:46.538Z,81.46
2022-09-07T22:13:18.375Z,81.20
2022-09-07T22:15:49.917Z,81.13
2022-09-07T22:18:21.857Z,80.93
2022-09-07T22:20:53.603Z,81.14
2022-09-07T22:23:25.409Z,81.15
2022-09-07T22:25:56.927Z,80.83
2022-09-07T22:28:28.854Z,81.08
2022-09-07T22:31:00.383Z,80.81
2022-09-07T22:33:32.530Z,80.47
2022-09-07T22:36:05.272Z,79.91
2022-09-07T22:38:38.552Z,79.62
2022-09-07T22:41:10.053Z,80.17
2022-09-07T22:43:43.030Z,79.79
2022-09-07T22:46:14.818Z,80.07
2022-09-07T22:48:46.811Z,79.56
2022-09-07T22:51:18.301Z,80.13
2022-09-07T22:53:50.112Z,79.62
2022-09-07T22:56:21.772Z,79.84
2022-09-07T22:58:53.605Z,79.93
2022-09-07T23:01:25.084Z,79.31
2022-09-07T23:03:56.892Z,79.07
2022-09-07T23:06:28.458Z,79.04
2022-09-07T23:09:00.343Z,78.33
2022-09-07T23:11:31.885Z,78.61
2022-09-07T23:14:03.745Z,77.46
2022-09-07T23:16:35.331Z,77.11
2022-09-07T23:19:07.305Z,77.76
2022-09-07T23:21:38.909Z,77.15
2022-09-07T23:24:10.760Z,76.97
2022-09-07T23:26:42.292Z,76.40
2022-09-07T23:29:14.272Z,76.80
2022-09-07T23:31:46.573Z,76.07
2022-09-07T23:34:18.119Z,76.03
2022-09-07T23:36:49.648Z,75.61
2022-09-07T23:39:21.155Z,75.85
2022-09-07T23:41:52.954Z,75.79
2022-09-07T23:44:24.442Z,75.80
2022-09-07T23:46:56.255Z,75.26
2022-09-07T23:49:27.807Z,75.75
2022-09-07T23:51:59.675Z,75.66
2022-09-07T23:54:31.232Z,75.81
2022-09-07T23:57:03.048Z,76.51
2022-09-07T23:59:34.524Z,76.63
